sensor_id;sensor_type;location;lat;lon;timestamp;P1;durP1;ratioP1;P2;durP2;ratioP2
24163;SDS011;12319;49.204;8.116;2023-03-21T00:00:42;3.35;;;1.73;;
24163;SDS011;12319;49.204;8.116;2023-03-21T00:03:08;4.00;;;1.80;;
24163;SDS011;12319;49.204;8.116;2023-03-21T00:05:38;3.25;;;1.65;;
24163;SDS011;12319;49.204;8.116;2023-03-21T00:08:05;4.30;;;1.80;;
24163;SDS011;12319;49.204;8.116;2023-03-21T00:10:30;3.28;;;1.63;;
24163;SDS011;12319;49.204;8.116;2023-03-21T00:12:56;3.90;;;1.80;;
24163;SDS011;12319;49.204;8.116;2023-03-21T00:15:22;3.55;;;1.73;;
24163;SDS011;12319;49.204;8.116;2023-03-21T00:17:53;3.20;;;1.70;;
24163;SDS011;12319;49.204;8.116;2023-03-21T00:20:30;5.07;;;1.90;;
24163;SDS011;12319;49.204;8.116;2023-03-21T00:22:58;3.50;;;1.75;;
24163;SDS011;12319;49.204;8.116;2023-03-21T00:25:25;3.80;;;1.60;;
24163;SDS011;12319;49.204;8.116;2023-03-21T00:27:51;2.95;;;1.60;;
24163;SDS011;12319;49.204;8.116;2023-03-21T00:30:17;3.33;;;1.70;;
24163;SDS011;12319;49.204;8.116;2023-03-21T00:32:42;3.23;;;1.63;;
24163;SDS011;12319;49.204;8.116;2023-03-21T00:35:08;3.47;;;1.60;;
24163;SDS011;12319;49.204;8.116;2023-03-21T00:37:33;6.13;;;1.70;;
24163;SDS011;12319;49.204;8.116;2023-03-21T00:39:59;3.10;;;1.60;;
24163;SDS011;12319;49.204;8.116;2023-03-21T00:42:24;3.50;;;1.70;;
24163;SDS011;12319;49.204;8.116;2023-03-21T00:44:50;3.03;;;1.57;;
24163;SDS011;12319;49.204;8.116;2023-03-21T00:47:16;3.38;;;1.60;;
24163;SDS011;12319;49.204;8.116;2023-03-21T00:49:41;3.50;;;1.50;;
24163;SDS011;12319;49.204;8.116;2023-03-21T00:52:07;2.93;;;1.60;;
24163;SDS011;12319;49.204;8.116;2023-03-21T00:54:34;3.78;;;1.90;;
24163;SDS011;12319;49.204;8.116;2023-03-21T00:57:02;3.17;;;1.67;;
24163;SDS011;12319;49.204;8.116;2023-03-21T00:59:28;3.00;;;1.70;;
24163;SDS011;12319;49.204;8.116;2023-03-21T01:01:54;3.20;;;1.55;;
24163;SDS011;12319;49.204;8.116;2023-03-21T01:04:20;3.33;;;1.60;;
24163;SDS011;12319;49.204;8.116;2023-03-21T01:06:50;3.65;;;1.58;;
24163;SDS011;12319;49.204;8.116;2023-03-21T01:09:18;2.90;;;1.60;;
24163;SDS011;12319;49.204;8.116;2023-03-21T01:11:45;2.88;;;1.65;;
24163;SDS011;12319;49.204;8.116;2023-03-21T01:14:12;4.80;;;1.80;;
24163;SDS011;12319;49.204;8.116;2023-03-21T01:16:39;3.07;;;1.60;;
24163;SDS011;12319;49.204;8.116;2023-03-21T01:19:06;3.13;;;1.45;;
24163;SDS011;12319;49.204;8.116;2023-03-21T01:21:32;2.92;;;1.60;;
24163;SDS011;12319;49.204;8.116;2023-03-21T01:23:58;2.85;;;1.58;;
24163;SDS011;12319;49.204;8.116;2023-03-21T01:26:25;2.72;;;1.55;;
24163;SDS011;12319;49.204;8.116;2023-03-21T01:28:51;3.00;;;1.40;;
24163;SDS011;12319;49.204;8.116;2023-03-21T01:31:17;3.42;;;1.67;;
24163;SDS011;12319;49.204;8.116;2023-03-21T01:33:43;3.37;;;1.60;;
24163;SDS011;12319;49.204;8.116;2023-03-21T01:36:12;3.92;;;1.80;;
24163;SDS011;12319;49.204;8.116;2023-03-21T01:38:41;4.70;;;1.63;;
24163;SDS011;12319;49.204;8.116;2023-03-21T01:41:08;3.03;;;1.60;;
24163;SDS011;12319;49.204;8.116;2023-03-21T01:43:43;2.77;;;1.50;;
24163;SDS011;12319;49.204;8.116;2023-03-21T01:49:23;3.22;;;1.60;;
24163;SDS011;12319;49.204;8.116;2023-03-21T01:52:03;3.05;;;1.60;;
24163;SDS011;12319;49.204;8.116;2023-03-21T01:54:37;2.67;;;1.58;;
24163;SDS011;12319;49.204;8.116;2023-03-21T01:57:06;2.80;;;1.65;;
24163;SDS011;12319;49.204;8.116;2023-03-21T01:59:36;3.75;;;1.55;;
24163;SDS011;12319;49.204;8.116;2023-03-21T02:02:08;3.35;;;1.67;;
24163;SDS011;12319;49.204;8.116;2023-03-21T02:04:37;3.83;;;1.38;;
24163;SDS011;12319;49.204;8.116;2023-03-21T02:07:06;2.67;;;1.52;;
24163;SDS011;12319;49.204;8.116;2023-03-21T02:09:36;3.95;;;1.70;;
24163;SDS011;12319;49.204;8.116;2023-03-21T02:12:04;3.30;;;1.55;;
24163;SDS011;12319;49.204;8.116;2023-03-21T02:14:33;2.90;;;1.60;;
24163;SDS011;12319;49.204;8.116;2023-03-21T02:20:01;2.75;;;1.50;;
24163;SDS011;12319;49.204;8.116;2023-03-21T02:22:49;2.72;;;1.63;;
24163;SDS011;12319;49.204;8.116;2023-03-21T02:25:43;2.90;;;1.50;;
24163;SDS011;12319;49.204;8.116;2023-03-21T02:28:35;2.47;;;1.30;;
24163;SDS011;12319;49.204;8.116;2023-03-21T02:39:30;2.58;;;1.40;;
24163;SDS011;12319;49.204;8.116;2023-03-21T02:42:27;3.50;;;1.83;;
24163;SDS011;12319;49.204;8.116;2023-03-21T02:45:08;2.75;;;1.45;;
24163;SDS011;12319;49.204;8.116;2023-03-21T02:52:48;3.08;;;1.70;;
24163;SDS011;12319;49.204;8.116;2023-03-21T02:55:18;2.92;;;1.60;;
24163;SDS011;12319;49.204;8.116;2023-03-21T02:57:48;2.80;;;1.60;;
24163;SDS011;12319;49.204;8.116;2023-03-21T03:00:17;3.13;;;1.55;;
24163;SDS011;12319;49.204;8.116;2023-03-21T03:02:45;3.35;;;1.55;;
24163;SDS011;12319;49.204;8.116;2023-03-21T03:05:18;3.15;;;1.48;;
24163;SDS011;12319;49.204;8.116;2023-03-21T03:10:22;3.20;;;1.70;;
24163;SDS011;12319;49.204;8.116;2023-03-21T03:13:01;3.00;;;1.52;;
24163;SDS011;12319;49.204;8.116;2023-03-21T03:26:14;2.78;;;1.50;;
24163;SDS011;12319;49.204;8.116;2023-03-21T03:28:47;2.92;;;1.55;;
24163;SDS011;12319;49.204;8.116;2023-03-21T03:31:19;3.20;;;1.67;;
24163;SDS011;12319;49.204;8.116;2023-03-21T03:33:49;3.00;;;1.60;;
24163;SDS011;12319;49.204;8.116;2023-03-21T03:36:18;2.88;;;1.50;;
24163;SDS011;12319;49.204;8.116;2023-03-21T03:38:47;2.72;;;1.55;;
24163;SDS011;12319;49.204;8.116;2023-03-21T03:41:16;2.70;;;1.50;;
24163;SDS011;12319;49.204;8.116;2023-03-21T03:43:47;2.78;;;1.63;;
24163;SDS011;12319;49.204;8.116;2023-03-21T03:46:17;3.30;;;1.60;;
24163;SDS011;12319;49.204;8.116;2023-03-21T03:48:52;2.78;;;1.60;;
24163;SDS011;12319;49.204;8.116;2023-03-21T03:53:52;2.33;;;1.50;;
24163;SDS011;12319;49.204;8.116;2023-03-21T03:56:32;3.35;;;1.50;;
24163;SDS011;12319;49.204;8.116;2023-03-21T03:58:58;2.88;;;1.50;;
24163;SDS011;12319;49.204;8.116;2023-03-21T04:01:28;2.28;;;1.42;;
24163;SDS011;12319;49.204;8.116;2023-03-21T04:03:53;3.20;;;1.45;;
24163;SDS011;12319;49.204;8.116;2023-03-21T04:06:19;2.67;;;1.50;;
24163;SDS011;12319;49.204;8.116;2023-03-21T04:08:46;3.28;;;1.63;;
24163;SDS011;12319;49.204;8.116;2023-03-21T04:11:12;2.65;;;1.50;;
24163;SDS011;12319;49.204;8.116;2023-03-21T04:13:42;2.70;;;1.50;;
24163;SDS011;12319;49.204;8.116;2023-03-21T04:16:08;3.03;;;1.48;;
24163;SDS011;12319;49.204;8.116;2023-03-21T04:18:35;2.95;;;1.50;;
24163;SDS011;12319;49.204;8.116;2023-03-21T04:21:05;2.63;;;1.50;;
24163;SDS011;12319;49.204;8.116;2023-03-21T04:23:32;2.55;;;1.40;;
24163;SDS011;12319;49.204;8.116;2023-03-21T04:25:59;3.13;;;1.63;;
24163;SDS011;12319;49.204;8.116;2023-03-21T04:28:25;2.90;;;1.63;;
24163;SDS011;12319;49.204;8.116;2023-03-21T04:30:50;3.00;;;1.55;;
24163;SDS011;12319;49.204;8.116;2023-03-21T04:33:16;3.23;;;1.60;;
24163;SDS011;12319;49.204;8.116;2023-03-21T04:35:41;2.17;;;1.30;;
24163;SDS011;12319;49.204;8.116;2023-03-21T04:38:09;2.83;;;1.67;;
24163;SDS011;12319;49.204;8.116;2023-03-21T04:40:35;2.63;;;1.50;;
24163;SDS011;12319;49.204;8.116;2023-03-21T04:43:00;2.60;;;1.40;;
24163;SDS011;12319;49.204;8.116;2023-03-21T04:45:26;2.67;;;1.60;;
24163;SDS011;12319;49.204;8.116;2023-03-21T04:47:51;2.87;;;1.60;;
24163;SDS011;12319;49.204;8.116;2023-03-21T04:50:17;4.53;;;1.70;;
24163;SDS011;12319;49.204;8.116;2023-03-21T04:52:42;2.47;;;1.50;;
24163;SDS011;12319;49.204;8.116;2023-03-21T04:55:08;2.30;;;1.30;;
24163;SDS011;12319;49.204;8.116;2023-03-21T04:57:34;2.58;;;1.55;;
24163;SDS011;12319;49.204;8.116;2023-03-21T05:00:02;2.78;;;1.40;;
24163;SDS011;12319;49.204;8.116;2023-03-21T05:02:33;2.97;;;1.50;;
24163;SDS011;12319;49.204;8.116;2023-03-21T05:04:58;2.93;;;1.60;;
24163;SDS011;12319;49.204;8.116;2023-03-21T05:07:24;2.57;;;1.40;;
24163;SDS011;12319;49.204;8.116;2023-03-21T05:09:50;2.75;;;1.50;;
24163;SDS011;12319;49.204;8.116;2023-03-21T05:12:16;3.55;;;1.50;;
24163;SDS011;12319;49.204;8.116;2023-03-21T05:14:43;2.88;;;1.65;;
24163;SDS011;12319;49.204;8.116;2023-03-21T05:17:08;4.28;;;1.80;;
24163;SDS011;12319;49.204;8.116;2023-03-21T05:19:34;2.47;;;1.47;;
24163;SDS011;12319;49.204;8.116;2023-03-21T05:22:04;2.50;;;1.60;;
24163;SDS011;12319;49.204;8.116;2023-03-21T05:24:33;3.92;;;1.73;;
24163;SDS011;12319;49.204;8.116;2023-03-21T05:27:03;3.03;;;1.47;;
24163;SDS011;12319;49.204;8.116;2023-03-21T05:29:29;2.40;;;1.42;;
24163;SDS011;12319;49.204;8.116;2023-03-21T05:31:55;3.08;;;1.83;;
24163;SDS011;12319;49.204;8.116;2023-03-21T05:34:22;2.80;;;1.40;;
24163;SDS011;12319;49.204;8.116;2023-03-21T05:36:48;3.17;;;1.33;;
24163;SDS011;12319;49.204;8.116;2023-03-21T05:39:13;3.13;;;1.53;;
24163;SDS011;12319;49.204;8.116;2023-03-21T05:41:39;3.40;;;1.60;;
24163;SDS011;12319;49.204;8.116;2023-03-21T05:44:05;3.83;;;1.50;;
24163;SDS011;12319;49.204;8.116;2023-03-21T05:46:30;2.92;;;1.60;;
24163;SDS011;12319;49.204;8.116;2023-03-21T05:48:56;3.42;;;1.83;;
24163;SDS011;12319;49.204;8.116;2023-03-21T05:51:21;3.00;;;1.50;;
24163;SDS011;12319;49.204;8.116;2023-03-21T05:53:47;2.53;;;1.50;;
24163;SDS011;12319;49.204;8.116;2023-03-21T05:56:12;4.20;;;1.90;;
24163;SDS011;12319;49.204;8.116;2023-03-21T05:58:38;2.87;;;1.60;;
24163;SDS011;12319;49.204;8.116;2023-03-21T06:01:04;2.83;;;1.58;;
24163;SDS011;12319;49.204;8.116;2023-03-21T06:03:30;2.63;;;1.50;;
24163;SDS011;12319;49.204;8.116;2023-03-21T06:05:55;2.85;;;1.60;;
24163;SDS011;12319;49.204;8.116;2023-03-21T06:08:21;4.03;;;1.60;;
24163;SDS011;12319;49.204;8.116;2023-03-21T06:10:47;3.50;;;1.70;;
24163;SDS011;12319;49.204;8.116;2023-03-21T06:13:12;2.93;;;1.47;;
24163;SDS011;12319;49.204;8.116;2023-03-21T06:15:39;3.75;;;1.80;;
24163;SDS011;12319;49.204;8.116;2023-03-21T06:18:05;3.60;;;1.63;;
24163;SDS011;12319;49.204;8.116;2023-03-21T06:20:32;4.17;;;1.70;;
24163;SDS011;12319;49.204;8.116;2023-03-21T06:22:58;3.97;;;1.70;;
24163;SDS011;12319;49.204;8.116;2023-03-21T06:25:24;2.63;;;1.50;;
24163;SDS011;12319;49.204;8.116;2023-03-21T06:27:49;3.23;;;1.70;;
24163;SDS011;12319;49.204;8.116;2023-03-21T06:30:15;3.80;;;1.87;;
24163;SDS011;12319;49.204;8.116;2023-03-21T06:32:41;4.57;;;1.83;;
24163;SDS011;12319;49.204;8.116;2023-03-21T06:35:07;3.42;;;1.70;;
24163;SDS011;12319;49.204;8.116;2023-03-21T06:37:33;3.63;;;1.63;;
24163;SDS011;12319;49.204;8.116;2023-03-21T06:39:58;3.43;;;1.60;;
24163;SDS011;12319;49.204;8.116;2023-03-21T06:42:24;3.28;;;1.70;;
24163;SDS011;12319;49.204;8.116;2023-03-21T06:44:50;3.17;;;1.63;;
24163;SDS011;12319;49.204;8.116;2023-03-21T06:47:15;3.07;;;1.70;;
24163;SDS011;12319;49.204;8.116;2023-03-21T06:49:41;3.05;;;1.60;;
24163;SDS011;12319;49.204;8.116;2023-03-21T06:52:07;3.78;;;1.77;;
24163;SDS011;12319;49.204;8.116;2023-03-21T06:54:33;2.87;;;1.37;;
24163;SDS011;12319;49.204;8.116;2023-03-21T06:57:00;3.83;;;1.80;;
24163;SDS011;12319;49.204;8.116;2023-03-21T06:59:25;3.38;;;1.70;;
24163;SDS011;12319;49.204;8.116;2023-03-21T07:01:51;3.13;;;1.60;;
24163;SDS011;12319;49.204;8.116;2023-03-21T07:04:17;3.60;;;1.75;;
24163;SDS011;12319;49.204;8.116;2023-03-21T07:06:42;7.37;;;1.80;;
24163;SDS011;12319;49.204;8.116;2023-03-21T07:09:08;3.40;;;1.67;;
24163;SDS011;12319;49.204;8.116;2023-03-21T07:11:34;3.28;;;1.70;;
24163;SDS011;12319;49.204;8.116;2023-03-21T07:14:00;3.38;;;1.70;;
24163;SDS011;12319;49.204;8.116;2023-03-21T07:16:25;3.03;;;1.60;;
24163;SDS011;12319;49.204;8.116;2023-03-21T07:18:51;3.40;;;1.80;;
24163;SDS011;12319;49.204;8.116;2023-03-21T07:21:17;3.58;;;1.80;;
24163;SDS011;12319;49.204;8.116;2023-03-21T07:23:42;6.13;;;1.70;;
24163;SDS011;12319;49.204;8.116;2023-03-21T07:26:08;3.45;;;1.70;;
24163;SDS011;12319;49.204;8.116;2023-03-21T07:28:34;5.10;;;1.80;;
24163;SDS011;12319;49.204;8.116;2023-03-21T07:31:00;4.60;;;1.80;;
24163;SDS011;12319;49.204;8.116;2023-03-21T07:33:28;5.97;;;2.03;;
24163;SDS011;12319;49.204;8.116;2023-03-21T07:35:55;3.13;;;1.70;;
24163;SDS011;12319;49.204;8.116;2023-03-21T07:38:22;3.58;;;1.77;;
24163;SDS011;12319;49.204;8.116;2023-03-21T07:40:48;3.35;;;1.75;;
24163;SDS011;12319;49.204;8.116;2023-03-21T07:43:15;3.55;;;1.67;;
24163;SDS011;12319;49.204;8.116;2023-03-21T07:45:41;4.30;;;1.88;;
24163;SDS011;12319;49.204;8.116;2023-03-21T07:48:07;4.30;;;1.80;;
24163;SDS011;12319;49.204;8.116;2023-03-21T07:50:34;4.53;;;2.08;;
24163;SDS011;12319;49.204;8.116;2023-03-21T07:53:00;3.28;;;1.65;;
24163;SDS011;12319;49.204;8.116;2023-03-21T07:55:26;3.27;;;1.73;;
24163;SDS011;12319;49.204;8.116;2023-03-21T07:57:51;4.75;;;2.00;;
24163;SDS011;12319;49.204;8.116;2023-03-21T08:00:18;3.55;;;1.60;;
24163;SDS011;12319;49.204;8.116;2023-03-21T08:02:49;4.75;;;1.80;;
24163;SDS011;12319;49.204;8.116;2023-03-21T08:05:18;4.22;;;1.80;;
24163;SDS011;12319;49.204;8.116;2023-03-21T08:07:45;3.80;;;1.95;;
24163;SDS011;12319;49.204;8.116;2023-03-21T08:10:11;4.53;;;1.90;;
24163;SDS011;12319;49.204;8.116;2023-03-21T08:12:37;5.13;;;1.97;;
24163;SDS011;12319;49.204;8.116;2023-03-21T08:15:02;4.22;;;2.00;;
24163;SDS011;12319;49.204;8.116;2023-03-21T08:17:28;4.57;;;2.03;;
24163;SDS011;12319;49.204;8.116;2023-03-21T08:19:54;4.20;;;1.80;;
24163;SDS011;12319;49.204;8.116;2023-03-21T08:22:19;4.57;;;1.90;;
24163;SDS011;12319;49.204;8.116;2023-03-21T08:24:45;3.97;;;2.03;;
24163;SDS011;12319;49.204;8.116;2023-03-21T08:27:11;5.10;;;2.27;;
24163;SDS011;12319;49.204;8.116;2023-03-21T08:29:36;4.40;;;2.00;;
24163;SDS011;12319;49.204;8.116;2023-03-21T08:32:04;5.60;;;2.20;;
24163;SDS011;12319;49.204;8.116;2023-03-21T08:34:30;4.22;;;1.80;;
24163;SDS011;12319;49.204;8.116;2023-03-21T08:36:56;5.68;;;2.50;;
24163;SDS011;12319;49.204;8.116;2023-03-21T08:39:21;7.90;;;2.80;;
24163;SDS011;12319;49.204;8.116;2023-03-21T08:41:48;4.28;;;2.20;;
24163;SDS011;12319;49.204;8.116;2023-03-21T08:44:14;5.30;;;2.07;;
24163;SDS011;12319;49.204;8.116;2023-03-21T08:46:41;4.55;;;2.33;;
24163;SDS011;12319;49.204;8.116;2023-03-21T08:49:06;5.68;;;2.25;;
24163;SDS011;12319;49.204;8.116;2023-03-21T08:51:32;4.43;;;2.10;;
24163;SDS011;12319;49.204;8.116;2023-03-21T08:53:57;3.80;;;1.87;;
24163;SDS011;12319;49.204;8.116;2023-03-21T08:56:23;4.75;;;2.15;;
24163;SDS011;12319;49.204;8.116;2023-03-21T08:58:49;4.20;;;2.00;;
24163;SDS011;12319;49.204;8.116;2023-03-21T09:01:14;4.13;;;2.17;;
24163;SDS011;12319;49.204;8.116;2023-03-21T09:03:40;4.63;;;2.37;;
24163;SDS011;12319;49.204;8.116;2023-03-21T09:06:07;6.25;;;2.45;;
24163;SDS011;12319;49.204;8.116;2023-03-21T09:08:36;4.45;;;2.17;;
24163;SDS011;12319;49.204;8.116;2023-03-21T09:11:02;5.10;;;2.15;;
24163;SDS011;12319;49.204;8.116;2023-03-21T09:13:28;5.93;;;2.47;;
24163;SDS011;12319;49.204;8.116;2023-03-21T09:15:54;4.45;;;2.15;;
24163;SDS011;12319;49.204;8.116;2023-03-21T09:18:22;5.57;;;2.30;;
24163;SDS011;12319;49.204;8.116;2023-03-21T09:21:06;5.75;;;2.58;;
24163;SDS011;12319;49.204;8.116;2023-03-21T09:23:37;5.75;;;3.15;;
24163;SDS011;12319;49.204;8.116;2023-03-21T09:26:03;4.50;;;2.30;;
24163;SDS011;12319;49.204;8.116;2023-03-21T09:28:30;5.22;;;2.58;;
24163;SDS011;12319;49.204;8.116;2023-03-21T09:30:57;5.87;;;2.70;;
24163;SDS011;12319;49.204;8.116;2023-03-21T09:33:24;5.88;;;2.72;;
24163;SDS011;12319;49.204;8.116;2023-03-21T09:35:51;4.45;;;2.22;;
24163;SDS011;12319;49.204;8.116;2023-03-21T09:38:18;3.90;;;1.97;;
24163;SDS011;12319;49.204;8.116;2023-03-21T09:43:34;6.57;;;2.38;;
24163;SDS011;12319;49.204;8.116;2023-03-21T09:51:22;5.88;;;2.40;;
24163;SDS011;12319;49.204;8.116;2023-03-21T09:53:52;5.25;;;2.67;;
24163;SDS011;12319;49.204;8.116;2023-03-21T09:56:21;6.03;;;2.30;;
24163;SDS011;12319;49.204;8.116;2023-03-21T09:58:51;4.95;;;2.47;;
24163;SDS011;12319;49.204;8.116;2023-03-21T10:01:24;6.57;;;2.67;;
24163;SDS011;12319;49.204;8.116;2023-03-21T10:03:52;5.60;;;2.63;;
24163;SDS011;12319;49.204;8.116;2023-03-21T10:06:19;4.40;;;2.22;;
24163;SDS011;12319;49.204;8.116;2023-03-21T10:08:52;9.65;;;3.13;;
24163;SDS011;12319;49.204;8.116;2023-03-21T10:11:47;7.28;;;2.95;;
24163;SDS011;12319;49.204;8.116;2023-03-21T10:20:00;6.20;;;2.60;;
24163;SDS011;12319;49.204;8.116;2023-03-21T10:22:36;5.00;;;2.50;;
24163;SDS011;12319;49.204;8.116;2023-03-21T10:25:02;5.50;;;2.40;;
24163;SDS011;12319;49.204;8.116;2023-03-21T10:27:29;5.03;;;2.20;;
24163;SDS011;12319;49.204;8.116;2023-03-21T10:29:56;4.40;;;2.00;;
24163;SDS011;12319;49.204;8.116;2023-03-21T10:32:24;4.03;;;1.95;;
24163;SDS011;12319;49.204;8.116;2023-03-21T10:34:52;4.87;;;1.90;;
24163;SDS011;12319;49.204;8.116;2023-03-21T10:37:20;4.20;;;1.80;;
24163;SDS011;12319;49.204;8.116;2023-03-21T10:39:47;4.57;;;2.20;;
24163;SDS011;12319;49.204;8.116;2023-03-21T10:42:20;4.22;;;1.90;;
24163;SDS011;12319;49.204;8.116;2023-03-21T10:44:49;5.20;;;2.42;;
24163;SDS011;12319;49.204;8.116;2023-03-21T10:47:24;4.63;;;2.20;;
24163;SDS011;12319;49.204;8.116;2023-03-21T10:49:52;4.85;;;2.10;;
24163;SDS011;12319;49.204;8.116;2023-03-21T10:52:19;4.70;;;2.40;;
24163;SDS011;12319;49.204;8.116;2023-03-21T10:54:46;4.70;;;2.10;;
24163;SDS011;12319;49.204;8.116;2023-03-21T10:57:22;4.55;;;2.33;;
24163;SDS011;12319;49.204;8.116;2023-03-21T10:59:54;6.20;;;2.80;;
24163;SDS011;12319;49.204;8.116;2023-03-21T11:02:35;5.47;;;2.28;;
24163;SDS011;12319;49.204;8.116;2023-03-21T11:05:05;4.57;;;2.17;;
24163;SDS011;12319;49.204;8.116;2023-03-21T11:07:38;5.45;;;2.53;;
24163;SDS011;12319;49.204;8.116;2023-03-21T11:10:13;4.95;;;2.40;;
24163;SDS011;12319;49.204;8.116;2023-03-21T11:12:41;5.17;;;2.10;;
24163;SDS011;12319;49.204;8.116;2023-03-21T11:15:26;4.30;;;2.10;;
24163;SDS011;12319;49.204;8.116;2023-03-21T11:18:18;5.25;;;2.45;;
24163;SDS011;12319;49.204;8.116;2023-03-21T11:21:10;4.65;;;2.30;;
24163;SDS011;12319;49.204;8.116;2023-03-21T11:23:37;4.80;;;2.25;;
24163;SDS011;12319;49.204;8.116;2023-03-21T11:26:11;4.93;;;2.40;;
24163;SDS011;12319;49.204;8.116;2023-03-21T11:28:47;4.88;;;2.42;;
24163;SDS011;12319;49.204;8.116;2023-03-21T11:31:15;5.18;;;2.55;;
24163;SDS011;12319;49.204;8.116;2023-03-21T11:33:42;5.97;;;2.80;;
24163;SDS011;12319;49.204;8.116;2023-03-21T11:38:43;4.20;;;2.20;;
24163;SDS011;12319;49.204;8.116;2023-03-21T11:41:21;4.85;;;2.00;;
24163;SDS011;12319;49.204;8.116;2023-03-21T11:43:51;6.70;;;2.88;;
24163;SDS011;12319;49.204;8.116;2023-03-21T11:46:21;7.18;;;3.25;;
24163;SDS011;12319;49.204;8.116;2023-03-21T11:48:52;4.93;;;2.63;;
24163;SDS011;12319;49.204;8.116;2023-03-21T12:02:38;4.83;;;2.57;;
24163;SDS011;12319;49.204;8.116;2023-03-21T12:05:26;4.53;;;2.25;;
24163;SDS011;12319;49.204;8.116;2023-03-21T12:13:46;5.75;;;2.10;;
24163;SDS011;12319;49.204;8.116;2023-03-21T12:19:17;4.07;;;2.00;;
24163;SDS011;12319;49.204;8.116;2023-03-21T12:24:52;5.47;;;2.20;;
24163;SDS011;12319;49.204;8.116;2023-03-21T12:45:38;4.53;;;2.13;;
24163;SDS011;12319;49.204;8.116;2023-03-21T12:51:12;4.13;;;1.80;;
24163;SDS011;12319;49.204;8.116;2023-03-21T12:56:22;2.90;;;1.43;;
24163;SDS011;12319;49.204;8.116;2023-03-21T12:59:02;6.10;;;1.90;;
24163;SDS011;12319;49.204;8.116;2023-03-21T13:01:40;4.97;;;1.90;;
24163;SDS011;12319;49.204;8.116;2023-03-21T13:06:51;4.13;;;1.80;;
24163;SDS011;12319;49.204;8.116;2023-03-21T13:09:23;4.30;;;2.00;;
24163;SDS011;12319;49.204;8.116;2023-03-21T13:11:56;4.45;;;1.70;;
24163;SDS011;12319;49.204;8.116;2023-03-21T13:14:31;3.60;;;1.70;;
24163;SDS011;12319;49.204;8.116;2023-03-21T13:23:09;3.73;;;1.63;;
24163;SDS011;12319;49.204;8.116;2023-03-21T13:25:44;4.60;;;2.22;;
24163;SDS011;12319;49.204;8.116;2023-03-21T13:28:19;4.60;;;2.10;;
24163;SDS011;12319;49.204;8.116;2023-03-21T13:30:47;3.67;;;1.75;;
24163;SDS011;12319;49.204;8.116;2023-03-21T13:33:14;3.78;;;1.80;;
24163;SDS011;12319;49.204;8.116;2023-03-21T13:35:45;8.83;;;2.70;;
24163;SDS011;12319;49.204;8.116;2023-03-21T13:38:25;4.93;;;2.03;;
24163;SDS011;12319;49.204;8.116;2023-03-21T13:40:57;5.05;;;1.60;;
24163;SDS011;12319;49.204;8.116;2023-03-21T13:46:09;4.53;;;1.80;;
24163;SDS011;12319;49.204;8.116;2023-03-21T13:48:42;3.80;;;1.70;;
24163;SDS011;12319;49.204;8.116;2023-03-21T14:04:43;5.25;;;1.77;;
24163;SDS011;12319;49.204;8.116;2023-03-21T14:07:11;3.63;;;1.65;;
24163;SDS011;12319;49.204;8.116;2023-03-21T14:09:47;3.35;;;1.58;;
24163;SDS011;12319;49.204;8.116;2023-03-21T14:12:17;3.95;;;1.60;;
24163;SDS011;12319;49.204;8.116;2023-03-21T14:14:51;3.27;;;1.50;;
24163;SDS011;12319;49.204;8.116;2023-03-21T14:17:26;5.38;;;2.15;;
24163;SDS011;12319;49.204;8.116;2023-03-21T14:19:54;4.25;;;1.90;;
24163;SDS011;12319;49.204;8.116;2023-03-21T14:22:21;3.47;;;1.70;;
24163;SDS011;12319;49.204;8.116;2023-03-21T14:24:48;5.17;;;2.13;;
24163;SDS011;12319;49.204;8.116;2023-03-21T14:27:25;4.30;;;1.75;;
24163;SDS011;12319;49.204;8.116;2023-03-21T14:29:54;4.32;;;2.05;;
24163;SDS011;12319;49.204;8.116;2023-03-21T14:32:24;5.32;;;2.20;;
24163;SDS011;12319;49.204;8.116;2023-03-21T14:34:52;4.13;;;1.95;;
24163;SDS011;12319;49.204;8.116;2023-03-21T14:37:32;4.30;;;1.95;;
24163;SDS011;12319;49.204;8.116;2023-03-21T14:40:04;4.35;;;1.85;;
24163;SDS011;12319;49.204;8.116;2023-03-21T14:42:47;3.65;;;1.80;;
24163;SDS011;12319;49.204;8.116;2023-03-21T14:45:16;3.92;;;1.70;;
24163;SDS011;12319;49.204;8.116;2023-03-21T14:47:55;5.30;;;2.20;;
24163;SDS011;12319;49.204;8.116;2023-03-21T14:53:00;4.95;;;2.00;;
24163;SDS011;12319;49.204;8.116;2023-03-21T14:55:26;4.70;;;1.90;;
24163;SDS011;12319;49.204;8.116;2023-03-21T14:57:52;3.57;;;1.60;;
24163;SDS011;12319;49.204;8.116;2023-03-21T15:00:27;4.20;;;2.00;;
24163;SDS011;12319;49.204;8.116;2023-03-21T15:02:56;5.63;;;1.80;;
24163;SDS011;12319;49.204;8.116;2023-03-21T15:07:51;4.22;;;1.90;;
24163;SDS011;12319;49.204;8.116;2023-03-21T15:10:23;4.20;;;1.88;;
24163;SDS011;12319;49.204;8.116;2023-03-21T15:12:51;3.75;;;1.67;;
24163;SDS011;12319;49.204;8.116;2023-03-21T15:15:20;5.32;;;1.90;;
24163;SDS011;12319;49.204;8.116;2023-03-21T15:17:47;3.73;;;1.83;;
24163;SDS011;12319;49.204;8.116;2023-03-21T15:20:16;5.85;;;1.98;;
24163;SDS011;12319;49.204;8.116;2023-03-21T15:22:44;3.65;;;1.67;;
24163;SDS011;12319;49.204;8.116;2023-03-21T15:25:17;3.88;;;1.90;;
24163;SDS011;12319;49.204;8.116;2023-03-21T15:27:47;4.45;;;2.17;;
24163;SDS011;12319;49.204;8.116;2023-03-21T15:30:18;3.50;;;1.80;;
24163;SDS011;12319;49.204;8.116;2023-03-21T15:32:46;3.80;;;2.00;;
24163;SDS011;12319;49.204;8.116;2023-03-21T15:35:13;4.40;;;1.90;;
24163;SDS011;12319;49.204;8.116;2023-03-21T15:37:40;5.88;;;2.10;;
24163;SDS011;12319;49.204;8.116;2023-03-21T15:42:46;4.13;;;2.08;;
24163;SDS011;12319;49.204;8.116;2023-03-21T15:45:20;3.73;;;1.87;;
24163;SDS011;12319;49.204;8.116;2023-03-21T15:50:40;4.05;;;2.00;;
24163;SDS011;12319;49.204;8.116;2023-03-21T15:53:13;4.90;;;1.90;;
24163;SDS011;12319;49.204;8.116;2023-03-21T15:55:49;3.97;;;1.98;;
24163;SDS011;12319;49.204;8.116;2023-03-21T15:58:25;5.38;;;1.95;;
24163;SDS011;12319;49.204;8.116;2023-03-21T16:00:59;4.40;;;1.77;;
24163;SDS011;12319;49.204;8.116;2023-03-21T16:03:29;3.72;;;1.70;;
24163;SDS011;12319;49.204;8.116;2023-03-21T16:06:02;3.50;;;1.52;;
24163;SDS011;12319;49.204;8.116;2023-03-21T16:08:31;4.03;;;1.70;;
24163;SDS011;12319;49.204;8.116;2023-03-21T16:11:21;4.40;;;2.25;;
24163;SDS011;12319;49.204;8.116;2023-03-21T16:13:55;3.70;;;1.83;;
24163;SDS011;12319;49.204;8.116;2023-03-21T16:16:25;3.60;;;1.70;;
24163;SDS011;12319;49.204;8.116;2023-03-21T16:18:52;4.05;;;1.80;;
24163;SDS011;12319;49.204;8.116;2023-03-21T16:21:21;4.43;;;1.85;;
24163;SDS011;12319;49.204;8.116;2023-03-21T16:23:48;2.93;;;1.47;;
24163;SDS011;12319;49.204;8.116;2023-03-21T16:26:15;3.35;;;1.50;;
24163;SDS011;12319;49.204;8.116;2023-03-21T16:28:44;3.70;;;1.70;;
24163;SDS011;12319;49.204;8.116;2023-03-21T16:31:17;3.30;;;1.60;;
24163;SDS011;12319;49.204;8.116;2023-03-21T16:33:47;3.75;;;1.70;;
24163;SDS011;12319;49.204;8.116;2023-03-21T16:36:13;3.65;;;1.70;;
24163;SDS011;12319;49.204;8.116;2023-03-21T16:38:47;3.53;;;1.60;;
24163;SDS011;12319;49.204;8.116;2023-03-21T16:41:14;4.18;;;1.60;;
24163;SDS011;12319;49.204;8.116;2023-03-21T16:43:40;3.97;;;1.88;;
24163;SDS011;12319;49.204;8.116;2023-03-21T16:46:17;4.47;;;1.85;;
24163;SDS011;12319;49.204;8.116;2023-03-21T16:48:46;4.63;;;1.70;;
24163;SDS011;12319;49.204;8.116;2023-03-21T16:51:15;4.15;;;1.60;;
24163;SDS011;12319;49.204;8.116;2023-03-21T16:53:53;3.83;;;2.00;;
24163;SDS011;12319;49.204;8.116;2023-03-21T16:56:20;3.92;;;1.67;;
24163;SDS011;12319;49.204;8.116;2023-03-21T16:58:50;3.90;;;1.80;;
24163;SDS011;12319;49.204;8.116;2023-03-21T17:01:18;4.25;;;1.90;;
24163;SDS011;12319;49.204;8.116;2023-03-21T17:03:45;3.92;;;1.95;;
24163;SDS011;12319;49.204;8.116;2023-03-21T17:06:16;4.38;;;1.90;;
24163;SDS011;12319;49.204;8.116;2023-03-21T17:08:43;7.53;;;1.90;;
24163;SDS011;12319;49.204;8.116;2023-03-21T17:11:10;4.18;;;2.08;;
24163;SDS011;12319;49.204;8.116;2023-03-21T17:13:37;3.78;;;1.90;;